createdAt,value
2022-11-16T00:00:20.007Z,86.35
2022-11-16T00:03:04.824Z,86.45
2022-11-16T00:05:32.453Z,86.56
2022-11-16T00:08:00.099Z,86.58
2022-11-16T00:10:27.709Z,86.69
2022-11-16T00:12:55.340Z,86.75
2022-11-16T00:15:22.971Z,86.86
2022-11-16T00:17:50.571Z,86.75
2022-11-16T00:20:18.176Z,86.80
2022-11-16T00:22:45.742Z,86.89
2022-11-16T00:25:13.407Z,86.80
2022-11-16T00:27:41.001Z,86.86
2022-11-16T00:30:09.114Z,86.96
2022-11-16T00:32:36.708Z,86.84
2022-11-16T00:35:04.564Z,86.83
2022-11-16T00:37:32.392Z,86.89
2022-11-16T00:39:59.957Z,86.86
2022-11-16T00:42:27.540Z,86.85
2022-11-16T00:44:55.109Z,87.02
2022-11-16T00:47:22.655Z,86.85
2022-11-16T00:49:50.443Z,86.89
2022-11-16T00:52:18.004Z,86.89
2022-11-16T00:54:45.691Z,86.94
2022-11-16T00:57:13.246Z,86.89
2022-11-16T00:59:40.859Z,87.05
2022-11-16T01:02:08.418Z,87.09
2022-11-16T01:04:36.048Z,87.23
2022-11-16T01:07:03.723Z,87.25
2022-11-16T01:09:31.542Z,87.16
2022-11-16T01:11:59.115Z,87.47
2022-11-16T01:14:26.760Z,87.31
2022-11-16T01:16:54.378Z,87.36
2022-11-16T01:19:21.941Z,87.29
2022-11-16T01:21:49.521Z,87.33
2022-11-16T01:24:17.112Z,87.32
2022-11-16T01:26:44.687Z,87.44
2022-11-16T01:29:12.300Z,87.39
2022-11-16T01:31:39.931Z,87.50
2022-11-16T01:34:08.035Z,87.56
2022-11-16T01:36:35.636Z,87.68
2022-11-16T01:39:04.967Z,87.74
2022-11-16T01:41:33.126Z,87.76
2022-11-16T01:44:05.117Z,87.63
2022-11-16T01:46:32.951Z,87.54
2022-11-16T01:49:06.745Z,87.71
2022-11-16T01:51:35.203Z,87.61
2022-11-16T01:54:08.542Z,87.63
2022-11-16T01:56:38.830Z,87.76
2022-11-16T01:59:06.775Z,87.71
2022-11-16T02:01:34.466Z,87.63
2022-11-16T02:04:02.141Z,87.76
2022-11-16T02:06:59.685Z,87.76
2022-11-16T02:09:48.406Z,87.80
2022-11-16T02:12:36.361Z,87.95
2022-11-16T02:15:19.100Z,87.95
2022-11-16T02:18:05.413Z,87.92
2022-11-16T02:21:04.085Z,87.92
2022-11-16T02:23:53.380Z,88.06
2022-11-16T02:26:33.269Z,88.10
2022-11-16T02:29:23.839Z,88.03
2022-11-16T02:31:55.758Z,88.04
2022-11-16T02:34:32.072Z,88.07
2022-11-16T02:37:02.220Z,88.04
2022-11-16T02:39:32.691Z,88.07
2022-11-16T02:42:02.765Z,88.08
2022-11-16T02:44:34.367Z,88.12
2022-11-16T02:47:07.695Z,88.18
2022-11-16T02:49:45.488Z,88.25
2022-11-16T02:52:16.303Z,88.28
2022-11-16T02:54:46.152Z,88.09
2022-11-16T02:57:32.087Z,88.11
2022-11-16T03:00:01.291Z,88.15
2022-11-16T03:02:36.166Z,88.20
2022-11-16T03:05:27.805Z,88.11
2022-11-16T03:08:00.790Z,88.08
2022-11-16T03:10:29.937Z,88.09
2022-11-16T03:13:01.944Z,87.97
2022-11-16T03:15:39.997Z,87.91
2022-11-16T03:18:16.800Z,87.91
2022-11-16T03:20:46.723Z,87.80
2022-11-16T03:23:14.877Z,87.77
2022-11-16T03:26:15.394Z,87.77
2022-11-16T03:28:48.855Z,87.95
2022-11-16T03:31:28.300Z,87.92
2022-11-16T03:34:00.978Z,87.84
2022-11-16T03:36:32.597Z,87.88
2022-11-16T03:39:02.792Z,87.84
2022-11-16T03:41:32.426Z,87.89
2022-11-16T03:44:01.126Z,88.01
2022-11-16T03:46:28.920Z,87.95
2022-11-16T03:49:00.612Z,87.99
2022-11-16T03:51:28.247Z,87.97
2022-11-16T03:53:55.845Z,88.08
2022-11-16T03:56:23.459Z,88.03
2022-11-16T03:58:51.051Z,87.88
2022-11-16T04:01:18.768Z,87.87
2022-11-16T04:03:46.503Z,87.79
2022-11-16T04:06:14.267Z,87.77
2022-11-16T04:08:41.925Z,87.81
2022-11-16T04:11:19.262Z,87.93
2022-11-16T04:13:47.454Z,87.90
2022-11-16T04:16:15.065Z,87.84
2022-11-16T04:18:42.670Z,87.81
2022-11-16T04:21:22.243Z,87.90
2022-11-16T04:23:49.998Z,87.83
2022-11-16T04:26:18.089Z,87.68
2022-11-16T04:28:48.354Z,87.78
2022-11-16T04:31:15.937Z,88.01
2022-11-16T04:33:44.204Z,87.92
2022-11-16T04:36:15.373Z,88.02
2022-11-16T04:38:45.557Z,88.01
2022-11-16T04:41:13.201Z,87.99
2022-11-16T04:43:40.792Z,87.93
2022-11-16T04:46:08.357Z,87.89
2022-11-16T04:48:36.313Z,88.06
2022-11-16T04:51:04.372Z,88.01
2022-11-16T04:53:31.981Z,87.90
2022-11-16T04:56:00.981Z,88.11
2022-11-16T04:58:28.768Z,88.20
2022-11-16T05:00:56.417Z,88.23
2022-11-16T05:03:24.137Z,88.27
2022-11-16T05:05:51.761Z,88.36
2022-11-16T05:08:19.305Z,88.29
2022-11-16T05:10:51.039Z,88.17
2022-11-16T05:13:18.619Z,88.25
2022-11-16T05:15:46.471Z,88.16
2022-11-16T05:18:14.074Z,88.24
2022-11-16T05:20:41.821Z,88.36
2022-11-16T05:23:09.823Z,88.29
2022-11-16T05:25:37.671Z,88.34
2022-11-16T05:28:05.343Z,88.30
2022-11-16T05:30:32.942Z,88.29
2022-11-16T05:33:00.543Z,88.35
2022-11-16T05:35:28.113Z,88.26
2022-11-16T05:37:55.704Z,88.29
2022-11-16T05:40:23.279Z,88.24
2022-11-16T05:42:50.863Z,88.19
2022-11-16T05:45:20.965Z,88.35
2022-11-16T05:47:48.916Z,88.47
2022-11-16T05:50:16.649Z,88.42
2022-11-16T05:52:44.231Z,88.26
2022-11-16T05:55:11.829Z,88.28
2022-11-16T05:57:39.387Z,88.34
2022-11-16T06:00:07.732Z,88.37
2022-11-16T06:02:35.371Z,88.48
2022-11-16T06:05:03.285Z,88.53
2022-11-16T06:07:30.968Z,88.50
2022-11-16T06:09:58.588Z,88.39
2022-11-16T06:12:26.233Z,88.43
2022-11-16T06:14:53.788Z,88.35
2022-11-16T06:17:21.361Z,88.43
2022-11-16T06:19:49.000Z,88.51
2022-11-16T06:22:16.573Z,88.44
2022-11-16T06:24:44.166Z,88.35
2022-11-16T06:27:11.710Z,88.37
2022-11-16T06:29:39.292Z,88.39
2022-11-16T06:32:06.931Z,88.58
2022-11-16T06:34:34.541Z,88.48
2022-11-16T06:37:02.155Z,88.41
2022-11-16T06:39:29.726Z,88.51
2022-11-16T06:41:57.311Z,88.65
2022-11-16T06:44:24.884Z,88.57
2022-11-16T06:46:52.476Z,88.55
2022-11-16T06:49:20.049Z,88.62
2022-11-16T06:51:47.616Z,88.68
2022-11-16T06:54:15.165Z,88.63
2022-11-16T06:56:42.732Z,88.40
2022-11-16T06:59:10.274Z,88.40
2022-11-16T07:01:38.450Z,88.53
2022-11-16T07:04:08.456Z,88.62
2022-11-16T07:06:36.106Z,88.52
2022-11-16T07:09:07.347Z,88.78
2022-11-16T07:11:36.163Z,88.68
2022-11-16T07:14:04.402Z,88.63
2022-11-16T07:16:34.255Z,88.59
2022-11-16T07:19:02.244Z,88.51
2022-11-16T07:21:30.781Z,88.61
2022-11-16T07:23:58.353Z,88.51
2022-11-16T07:26:25.978Z,88.62
2022-11-16T07:28:53.550Z,88.64
2022-11-16T07:31:21.150Z,88.66
2022-11-16T07:33:48.692Z,88.63
2022-11-16T07:36:16.387Z,88.40
2022-11-16T07:38:44.355Z,88.53
2022-11-16T07:41:17.429Z,88.56
2022-11-16T07:43:51.529Z,88.27
2022-11-16T07:46:46.156Z,88.29
2022-11-16T07:49:14.255Z,88.07
2022-11-16T07:51:42.591Z,88.16
2022-11-16T07:54:14.644Z,88.22
2022-11-16T07:56:42.623Z,88.23
2022-11-16T07:59:10.275Z,88.06
2022-11-16T08:01:37.939Z,88.22
2022-11-16T08:04:05.517Z,88.12
2022-11-16T08:06:33.096Z,88.11
2022-11-16T08:09:00.661Z,88.02
2022-11-16T08:11:28.293Z,88.20
2022-11-16T08:13:56.536Z,88.19
2022-11-16T08:16:24.121Z,88.04
2022-11-16T08:18:51.826Z,87.76
2022-11-16T08:21:19.903Z,87.97
2022-11-16T08:23:47.477Z,87.86
2022-11-16T08:26:17.643Z,88.07
2022-11-16T08:28:47.671Z,88.08
2022-11-16T08:31:21.129Z,87.87
2022-11-16T08:33:48.710Z,87.84
2022-11-16T08:36:16.288Z,87.78
2022-11-16T08:38:45.190Z,87.64
2022-11-16T08:41:13.373Z,87.62
2022-11-16T08:43:41.148Z,87.50
2022-11-16T08:46:10.379Z,87.48
2022-11-16T08:48:38.405Z,87.45
2022-11-16T08:51:20.409Z,87.43
2022-11-16T08:53:49.704Z,87.46
2022-11-16T08:56:18.726Z,87.58
2022-11-16T08:58:46.781Z,87.67
2022-11-16T09:01:17.495Z,87.52
2022-11-16T09:03:45.595Z,87.34
2022-11-16T09:06:13.924Z,87.50
2022-11-16T09:08:43.383Z,87.56
2022-11-16T09:11:18.293Z,87.64
2022-11-16T09:13:47.662Z,87.56
2022-11-16T09:16:15.685Z,87.33
2022-11-16T09:18:47.789Z,87.29
2022-11-16T09:21:20.772Z,87.35
2022-11-16T09:23:49.257Z,87.33
2022-11-16T09:26:17.969Z,87.36
2022-11-16T09:28:45.579Z,87.11
2022-11-16T09:31:15.563Z,87.00
2022-11-16T09:33:46.579Z,87.32
2022-11-16T09:36:14.204Z,87.25
2022-11-16T09:39:17.845Z,87.13
2022-11-16T09:41:46.129Z,86.96
2022-11-16T09:44:29.083Z,86.87
2022-11-16T09:46:59.451Z,86.97
2022-11-16T09:49:36.340Z,86.90
2022-11-16T09:52:09.774Z,86.90
2022-11-16T09:54:42.376Z,87.07
2022-11-16T09:57:14.679Z,86.81
2022-11-16T09:59:49.588Z,86.58
2022-11-16T10:02:40.220Z,86.80
2022-11-16T10:05:16.212Z,86.74
2022-11-16T10:07:47.037Z,86.68
2022-11-16T10:10:36.792Z,86.90
2022-11-16T10:13:23.430Z,86.82
2022-11-16T10:15:53.650Z,86.81
2022-11-16T10:18:32.353Z,86.85
2022-11-16T10:21:18.067Z,86.89
2022-11-16T10:24:17.486Z,86.77
2022-11-16T10:27:05.818Z,87.03
2022-11-16T10:30:09.157Z,87.03
2022-11-16T10:32:47.273Z,86.88
2022-11-16T10:35:27.369Z,86.88
2022-11-16T10:37:55.720Z,86.82
2022-11-16T10:40:29.874Z,86.82
2022-11-16T10:43:18.804Z,86.84
2022-11-16T10:46:20.139Z,87.04
2022-11-16T10:49:00.406Z,86.71
2022-11-16T10:51:28.037Z,86.81
2022-11-16T10:53:55.683Z,86.80
2022-11-16T10:56:47.059Z,86.90
2022-11-16T10:59:18.666Z,87.15
2022-11-16T11:01:50.176Z,86.85
2022-11-16T11:04:21.924Z,86.59
2022-11-16T11:06:52.720Z,86.56
2022-11-16T11:09:32.072Z,86.54
2022-11-16T11:12:01.151Z,86.41
2022-11-16T11:14:28.743Z,86.55
2022-11-16T11:17:11.245Z,86.42
2022-11-16T11:19:38.788Z,86.41
2022-11-16T11:22:13.733Z,86.56
2022-11-16T11:24:47.534Z,86.65
2022-11-16T11:27:22.309Z,86.67
2022-11-16T11:29:54.307Z,86.75
2022-11-16T11:32:25.048Z,86.75
2022-11-16T11:34:54.541Z,86.54
2022-11-16T11:37:29.815Z,86.70
2022-11-16T11:40:17.154Z,86.45
2022-11-16T11:42:57.050Z,86.34
2022-11-16T11:45:50.431Z,86.46
2022-11-16T11:48:29.980Z,86.53
2022-11-16T11:51:32.843Z,86.48
2022-11-16T11:54:04.679Z,86.20
2022-11-16T11:56:33.355Z,86.04
2022-11-16T11:59:04.716Z,86.03
2022-11-16T12:01:57.516Z,85.68
2022-11-16T12:04:43.145Z,85.72
2022-11-16T12:07:35.290Z,85.76
2022-11-16T12:10:02.810Z,85.76
2022-11-16T12:12:50.527Z,85.89
2022-11-16T12:16:09.529Z,85.91
2022-11-16T12:19:14.147Z,85.95
2022-11-16T12:22:03.607Z,86.13
2022-11-16T12:24:46.538Z,86.09
2022-11-16T12:27:43.476Z,86.11
2022-11-16T12:30:19.204Z,85.99
2022-11-16T12:33:13.955Z,86.15
2022-11-16T12:36:00.883Z,86.14
2022-11-16T12:38:47.380Z,86.21
2022-11-16T12:41:26.895Z,86.15
2022-11-16T12:44:10.935Z,86.05
2022-11-16T12:46:57.487Z,86.06
2022-11-16T12:49:27.723Z,86.20
2022-11-16T12:52:21.839Z,86.12
2022-11-16T12:55:25.479Z,86.02
2022-11-16T12:58:03.780Z,85.99
2022-11-16T13:00:45.028Z,86.09
2022-11-16T13:03:31.594Z,86.36
2022-11-16T13:06:05.048Z,86.35
2022-11-16T13:08:40.073Z,86.37
2022-11-16T13:11:22.358Z,86.47
2022-11-16T13:13:56.356Z,86.59
2022-11-16T13:16:25.165Z,86.46
2022-11-16T13:18:54.403Z,86.50
2022-11-16T13:21:40.250Z,86.47
2022-11-16T13:24:24.503Z,86.58
2022-11-16T13:27:10.512Z,86.55
2022-11-16T13:29:46.417Z,86.59
2022-11-16T13:32:24.188Z,86.46
2022-11-16T13:34:52.541Z,86.55
2022-11-16T13:37:38.298Z,86.63
2022-11-16T13:40:05.929Z,86.81
2022-11-16T13:42:39.072Z,86.67
2022-11-16T13:45:19.126Z,86.75
2022-11-16T13:47:53.034Z,86.51
2022-11-16T13:50:24.248Z,86.62
2022-11-16T13:55:45.448Z,86.42
2022-11-16T13:58:21.564Z,86.79
2022-11-16T14:01:01.326Z,86.60
2022-11-16T14:03:32.861Z,86.72
2022-11-16T14:06:00.761Z,86.77
2022-11-16T14:08:34.280Z,86.52
2022-11-16T14:11:01.979Z,86.75
2022-11-16T14:13:39.698Z,86.57
2022-11-16T14:16:19.661Z,86.59
2022-11-16T14:18:51.567Z,86.46
2022-11-16T14:21:19.141Z,86.47
2022-11-16T14:24:05.364Z,86.63
2022-11-16T14:26:36.044Z,86.57
2022-11-16T14:29:25.145Z,86.45
2022-11-16T14:31:55.815Z,86.71
2022-11-16T14:34:32.730Z,86.67
2022-11-16T14:37:00.597Z,86.66
2022-11-16T14:39:43.244Z,86.66
2022-11-16T14:42:22.592Z,86.66
2022-11-16T14:44:57.231Z,86.69
2022-11-16T14:47:26.993Z,86.63
2022-11-16T14:49:55.541Z,86.78
2022-11-16T14:52:45.359Z,86.74
2022-11-16T14:55:21.546Z,86.72
2022-11-16T14:57:49.106Z,86.77
2022-11-16T15:00:21.244Z,86.73
2022-11-16T15:02:57.688Z,86.66
2022-11-16T15:05:34.497Z,86.58
2022-11-16T15:08:07.868Z,86.69
2022-11-16T15:10:35.757Z,86.65
2022-11-16T15:13:04.212Z,86.73
2022-11-16T15:15:31.959Z,86.91
2022-11-16T15:17:59.623Z,87.24
2022-11-16T15:20:30.345Z,87.03
2022-11-16T15:22:59.209Z,87.25
2022-11-16T15:25:28.589Z,87.23
2022-11-16T15:27:58.229Z,87.22
2022-11-16T15:30:29.120Z,87.23
2022-11-16T15:32:57.292Z,87.42
2022-11-16T15:35:28.271Z,87.18
2022-11-16T15:38:06.460Z,87.24
2022-11-16T15:40:34.848Z,87.19
2022-11-16T15:43:05.052Z,87.23
2022-11-16T15:45:33.886Z,87.26
2022-11-16T15:48:02.559Z,87.20
2022-11-16T15:50:30.962Z,87.19
2022-11-16T15:52:59.188Z,87.26
2022-11-16T15:55:29.787Z,87.42
2022-11-16T15:58:19.658Z,87.18
2022-11-16T16:00:48.213Z,87.29
2022-11-16T16:03:21.475Z,87.33
2022-11-16T16:05:49.611Z,87.30
2022-11-16T16:08:27.643Z,87.23
2022-11-16T16:10:58.907Z,87.31
2022-11-16T16:13:40.289Z,87.32
2022-11-16T16:16:17.079Z,87.44
2022-11-16T16:18:45.447Z,87.61
2022-11-16T16:21:13.563Z,87.79
2022-11-16T16:23:50.509Z,87.79
2022-11-16T16:26:18.318Z,87.91
2022-11-16T16:28:45.944Z,87.92
2022-11-16T16:31:13.712Z,87.97
2022-11-16T16:33:44.037Z,88.05
2022-11-16T16:36:11.603Z,88.26
2022-11-16T16:38:40.058Z,88.40
2022-11-16T16:41:08.087Z,88.48
2022-11-16T16:43:35.903Z,88.48
2022-11-16T16:46:04.176Z,88.52
2022-11-16T16:48:31.739Z,88.68
2022-11-16T16:50:59.318Z,88.75
2022-11-16T16:53:27.150Z,88.87
2022-11-16T16:55:54.780Z,88.90
2022-11-16T16:58:25.110Z,88.89
2022-11-16T17:00:56.933Z,89.16
2022-11-16T17:03:27.545Z,89.28
2022-11-16T17:06:00.004Z,89.34
2022-11-16T17:08:32.324Z,89.34
2022-11-16T17:11:01.867Z,89.25
2022-11-16T17:13:29.743Z,89.22
2022-11-16T17:15:57.323Z,89.25
2022-11-16T17:18:26.215Z,89.19
2022-11-16T17:20:53.829Z,89.24
2022-11-16T17:23:21.447Z,89.28
2022-11-16T17:25:49.005Z,89.09
2022-11-16T17:28:16.595Z,89.15
2022-11-16T17:30:44.384Z,89.27
2022-11-16T17:33:12.047Z,89.17
2022-11-16T17:35:39.708Z,89.25
2022-11-16T17:38:09.911Z,89.14
2022-11-16T17:40:37.490Z,89.17
2022-11-16T17:43:05.091Z,89.17
2022-11-16T17:45:32.787Z,89.33
2022-11-16T17:48:00.388Z,89.13
2022-11-16T17:50:27.959Z,89.15
2022-11-16T17:52:55.584Z,88.91
2022-11-16T17:55:23.191Z,88.89
2022-11-16T17:57:50.858Z,89.04
2022-11-16T18:00:18.828Z,89.16
2022-11-16T18:02:46.445Z,89.02
2022-11-16T18:05:14.140Z,89.18
2022-11-16T18:07:41.704Z,89.21
2022-11-16T18:10:09.689Z,89.28
2022-11-16T18:12:37.484Z,89.24
2022-11-16T18:15:27.540Z,89.24
2022-11-16T18:17:53.312Z,89.37
2022-11-16T18:20:20.908Z,89.24
2022-11-16T18:22:48.568Z,89.20
2022-11-16T18:25:16.225Z,89.31
2022-11-16T18:27:43.818Z,89.25
2022-11-16T18:30:11.715Z,89.38
2022-11-16T18:32:39.338Z,89.41
2022-11-16T18:35:07.253Z,89.41
2022-11-16T18:37:34.801Z,89.41
2022-11-16T18:40:03.108Z,89.28
2022-11-16T18:42:30.684Z,89.46
2022-11-16T18:44:58.254Z,89.46
2022-11-16T18:47:25.894Z,89.54
2022-11-16T18:49:53.854Z,89.43
2022-11-16T18:52:21.514Z,89.19
2022-11-16T18:54:49.112Z,89.13
2022-11-16T18:57:16.729Z,89.31
2022-11-16T18:59:44.321Z,89.20
2022-11-16T19:02:12.882Z,89.31
2022-11-16T19:04:41.213Z,89.09
2022-11-16T19:07:10.159Z,89.05
2022-11-16T19:09:37.756Z,89.02
2022-11-16T19:12:05.501Z,89.10
2022-11-16T19:14:33.115Z,89.24
2022-11-16T19:17:00.737Z,89.15
2022-11-16T19:19:28.295Z,88.84
2022-11-16T19:21:55.884Z,88.84
2022-11-16T19:24:26.190Z,88.90
2022-11-16T19:26:53.749Z,88.85
2022-11-16T19:29:21.661Z,88.75
2022-11-16T19:31:49.244Z,88.87
2022-11-16T19:34:16.836Z,88.91
2022-11-16T19:36:44.400Z,89.02
2022-11-16T19:39:12.073Z,88.85
2022-11-16T19:41:39.736Z,89.09
2022-11-16T19:44:07.367Z,88.97
2022-11-16T19:46:34.950Z,88.97
2022-11-16T19:49:02.984Z,88.97
2022-11-16T19:51:32.924Z,89.04
2022-11-16T19:54:01.812Z,88.76
2022-11-16T19:56:29.591Z,88.78
2022-11-16T19:58:57.215Z,88.50
2022-11-16T20:01:26.966Z,88.59
2022-11-16T20:03:57.197Z,88.58
2022-11-16T20:06:27.796Z,88.86
2022-11-16T20:08:57.586Z,88.87
2022-11-16T20:11:27.409Z,88.81
2022-11-16T20:13:57.483Z,88.76
2022-11-16T20:16:30.686Z,88.77
2022-11-16T20:19:01.675Z,88.63
2022-11-16T20:21:31.683Z,88.62
2022-11-16T20:24:06.076Z,88.66
2022-11-16T20:26:35.746Z,88.70
2022-11-16T20:29:04.090Z,88.70
2022-11-16T20:31:33.351Z,88.90
2022-11-16T20:34:05.584Z,88.84
2022-11-16T20:36:33.873Z,88.63
2022-11-16T20:39:01.463Z,88.67
2022-11-16T20:41:32.505Z,88.72
2022-11-16T20:44:01.955Z,88.81
2022-11-16T20:46:31.546Z,88.75
2022-11-16T20:49:00.109Z,88.76
2022-11-16T20:51:28.976Z,88.58
2022-11-16T20:53:57.057Z,88.69
2022-11-16T20:56:24.913Z,88.60
2022-11-16T20:58:52.694Z,88.51
2022-11-16T21:01:22.813Z,88.60
2022-11-16T21:03:50.533Z,88.68
2022-11-16T21:06:18.056Z,88.57
2022-11-16T21:08:45.652Z,88.67
2022-11-16T21:11:19.871Z,88.74
2022-11-16T21:13:47.857Z,88.73
2022-11-16T21:16:15.712Z,88.84
2022-11-16T21:18:43.328Z,89.05
2022-11-16T21:21:13.279Z,89.06
2022-11-16T21:23:42.947Z,89.06
2022-11-16T21:26:12.757Z,89.23
2022-11-16T21:28:41.155Z,89.31
2022-11-16T21:31:17.685Z,89.20
2022-11-16T21:33:45.998Z,89.32
2022-11-16T21:36:18.980Z,89.38
2022-11-16T21:38:46.913Z,89.37
2022-11-16T21:41:15.749Z,89.28
2022-11-16T21:43:43.355Z,89.34
2022-11-16T21:46:19.756Z,89.40
2022-11-16T21:48:47.905Z,89.39
2022-11-16T21:51:18.160Z,89.18
2022-11-16T21:53:46.272Z,88.97
2022-11-16T21:56:19.137Z,89.04
2022-11-16T21:58:47.329Z,89.05
2022-11-16T22:01:16.501Z,89.10
2022-11-16T22:03:44.262Z,88.91
2022-11-16T22:06:14.860Z,88.90
2022-11-16T22:08:43.295Z,88.85
2022-11-16T22:11:11.330Z,88.51
2022-11-16T22:13:39.107Z,88.62
2022-11-16T22:16:08.940Z,88.37
2022-11-16T22:18:37.059Z,88.22
2022-11-16T22:21:05.484Z,88.28
2022-11-16T22:23:33.777Z,88.24
2022-11-16T22:26:12.650Z,88.26
2022-11-16T22:28:40.748Z,88.51
2022-11-16T22:31:15.089Z,88.54
2022-11-16T22:33:42.766Z,88.44
2022-11-16T22:36:10.744Z,88.54
2022-11-16T22:38:38.321Z,88.69
2022-11-16T22:41:06.061Z,88.77
2022-11-16T22:43:34.058Z,88.74
2022-11-16T22:46:04.408Z,88.72
2022-11-16T22:48:33.657Z,88.64
2022-11-16T22:51:04.648Z,88.76
2022-11-16T22:53:32.696Z,88.79
2022-11-16T22:56:08.261Z,88.67
2022-11-16T22:58:37.501Z,88.71
2022-11-16T23:01:06.983Z,88.79
2022-11-16T23:03:35.438Z,88.90
2022-11-16T23:06:04.410Z,88.88
2022-11-16T23:08:32.716Z,88.71
2022-11-16T23:11:07.803Z,88.67
2022-11-16T23:13:35.658Z,88.49
2022-11-16T23:16:04.700Z,88.61
2022-11-16T23:18:32.288Z,88.58
2022-11-16T23:20:59.870Z,88.61
2022-11-16T23:23:27.497Z,88.59
2022-11-16T23:25:55.132Z,88.53
2022-11-16T23:28:22.747Z,88.44
2022-11-16T23:30:50.411Z,88.14
2022-11-16T23:33:17.960Z,88.13
2022-11-16T23:35:45.553Z,88.16
2022-11-16T23:38:13.147Z,88.15
2022-11-16T23:40:40.770Z,87.94
2022-11-16T23:43:10.265Z,87.93
2022-11-16T23:45:39.196Z,87.70
2022-11-16T23:48:08.383Z,87.71
2022-11-16T23:50:36.910Z,87.82
2022-11-16T23:53:05.957Z,87.82
2022-11-16T23:55:35.787Z,87.89
2022-11-16T23:58:05.759Z,87.91
